createdAt,value
2017-05-27T00:00:05.526Z,62.68
2017-05-27T00:01:15.875Z,62.64
2017-05-27T00:02:25.924Z,62.55
2017-05-27T00:03:35.641Z,62.45
2017-05-27T00:04:45.680Z,62.55
2017-05-27T00:05:55.710Z,62.45
2017-05-27T00:07:05.753Z,62.35
2017-05-27T00:08:15.811Z,62.26
2017-05-27T00:09:25.862Z,62.55
2017-05-27T00:10:36.209Z,62.64
2017-05-27T00:11:46.311Z,62.55
2017-05-27T00:12:56.665Z,62.07
2017-05-27T00:14:07.019Z,62.32
2017-05-27T00:15:16.746Z,62.07
2017-05-27T00:16:26.477Z,61.97
2017-05-27T00:17:36.816Z,62.07
2017-05-27T00:18:47.217Z,61.84
2017-05-27T00:19:57.277Z,61.97
2017-05-27T00:21:07.636Z,62.23
2017-05-27T00:22:17.361Z,62.23
2017-05-27T00:23:27.701Z,61.84
2017-05-27T00:24:37.732Z,62.32
2017-05-27T00:25:48.089Z,61.84
2017-05-27T00:26:58.455Z,61.84
2017-05-27T00:28:08.801Z,61.75
2017-05-27T00:29:19.163Z,62.04
2017-05-27T00:30:29.218Z,62.23
2017-05-27T00:31:39.260Z,62.04
2017-05-27T00:32:49.619Z,62.04
2017-05-27T00:33:59.979Z,62.04
2017-05-27T00:35:10.027Z,61.84
2017-05-27T00:36:20.383Z,62.04
2017-05-27T00:37:30.730Z,62.13
2017-05-27T00:38:41.066Z,61.94
2017-05-27T00:39:51.410Z,62.32
2017-05-27T00:41:01.751Z,62.32
2017-05-27T00:42:12.296Z,61.94
2017-05-27T00:43:22.348Z,61.84
2017-05-27T00:44:32.704Z,62.23
2017-05-27T00:45:42.752Z,61.46
2017-05-27T00:46:53.145Z,61.65
2017-05-27T00:48:03.230Z,61.65
2017-05-27T00:49:13.261Z,61.75
2017-05-27T00:50:23.605Z,61.68
2017-05-27T00:51:33.952Z,61.65
2017-05-27T00:52:44.357Z,61.58
2017-05-27T00:53:54.396Z,62.07
2017-05-27T00:55:04.762Z,61.11
2017-05-27T00:56:14.502Z,61.01
2017-05-27T00:57:24.873Z,60.91
2017-05-27T00:58:35.277Z,62
2017-05-27T00:59:45.625Z,61.91
2017-05-27T01:00:55.995Z,62.19
2017-05-27T01:02:06.026Z,62.1
2017-05-27T01:03:16.064Z,61.23
2017-05-27T01:04:26.102Z,62
2017-05-27T01:05:36.139Z,62.1
2017-05-27T01:06:46.495Z,61.71
2017-05-27T01:07:56.838Z,61.71
2017-05-27T01:09:06.553Z,61.81
2017-05-27T01:10:16.620Z,61.81
2017-05-27T01:11:26.983Z,61.61
2017-05-27T01:12:37.326Z,61.61
2017-05-27T01:13:47.686Z,61.81
2017-05-27T01:14:58.036Z,61.91
2017-05-27T01:16:08.113Z,62.29
2017-05-27T01:17:18.142Z,62
2017-05-27T01:18:28.506Z,62.1
2017-05-27T01:19:38.854Z,62.1
2017-05-27T01:20:49.241Z,61.91
2017-05-27T01:21:59.582Z,62.1
2017-05-27T01:23:09.918Z,62
2017-05-27T01:24:20.275Z,61.91
2017-05-27T01:25:30.636Z,61.91
2017-05-27T01:26:40.970Z,62.1
2017-05-27T01:27:51.374Z,62
2017-05-27T01:29:01.732Z,62.1
2017-05-27T01:30:12.076Z,62.58
2017-05-27T01:31:22.125Z,62.1
2017-05-27T01:32:32.493Z,62.58
2017-05-27T01:33:42.893Z,62.68
2017-05-27T01:34:53.247Z,62.68
2017-05-27T01:36:03.287Z,62.48
2017-05-27T01:37:13.650Z,62.58
2017-05-27T01:38:23.696Z,62.68
2017-05-27T01:39:34.100Z,62.48
2017-05-27T01:40:44.446Z,62.68
2017-05-27T01:41:54.821Z,62.48
2017-05-27T01:43:05.167Z,62.58
2017-05-27T01:44:15.215Z,62.48
2017-05-27T01:45:25.584Z,62.68
2017-05-27T01:46:35.934Z,62.68
2017-05-27T01:47:45.389Z,62.58
2017-05-27T01:48:55.110Z,62.68
2017-05-27T01:50:05.462Z,62.48
2017-05-27T01:51:15.557Z,62.48
2017-05-27T01:52:25.583Z,62.68
2017-05-27T01:53:35.941Z,62.29
2017-05-27T01:54:46.290Z,62.48
2017-05-27T01:55:56.643Z,62.16
2017-05-27T01:57:07.242Z,62.48
2017-05-27T01:58:17.597Z,62.35
2017-05-27T01:59:27.645Z,62.35
2017-05-27T02:00:37.999Z,62.45
2017-05-27T02:01:48.358Z,62.45
2017-05-27T02:02:58.398Z,62.35
2017-05-27T02:04:08.739Z,62.55
2017-05-27T02:05:19.086Z,62.35
2017-05-27T02:06:29.438Z,62.45
2017-05-27T02:07:39.491Z,62.45
2017-05-27T02:08:49.907Z,62.42
2017-05-27T02:10:00.270Z,62.35
2017-05-27T02:11:10.325Z,62.04
2017-05-27T02:12:20.675Z,62.42
2017-05-27T02:13:31.097Z,62.13
2017-05-27T02:14:41.461Z,62.23
2017-05-27T02:15:51.508Z,62.42
2017-05-27T02:17:01.849Z,62.42
2017-05-27T02:18:11.880Z,62.42
2017-05-27T02:19:21.939Z,62.32
2017-05-27T02:20:32.054Z,62.32
2017-05-27T02:21:42.408Z,62.04
2017-05-27T02:22:52.752Z,62.13
2017-05-27T02:24:03.095Z,62.32
2017-05-27T02:25:13.129Z,62.04
2017-05-27T02:26:23.477Z,62.23
2017-05-27T02:27:33.199Z,62.23
2017-05-27T02:28:43.541Z,62.04
2017-05-27T02:29:53.895Z,62.52
2017-05-27T02:31:03.640Z,62.04
2017-05-27T02:32:13.725Z,62.23
2017-05-27T02:33:24.089Z,62.23
2017-05-27T02:34:34.440Z,62.23
2017-05-27T02:35:44.798Z,62.42
2017-05-27T02:36:55.154Z,61.91
2017-05-27T02:38:05.486Z,62.39
2017-05-27T02:39:15.210Z,62.01
2017-05-27T02:40:24.937Z,62.01
2017-05-27T02:41:34.970Z,62.29
2017-05-27T02:42:45.324Z,62.29
2017-05-27T02:43:55.675Z,62.19
2017-05-27T02:45:06.085Z,62.29
2017-05-27T02:46:16.430Z,62.39
2017-05-27T02:47:26.776Z,62.19
2017-05-27T02:48:36.803Z,62.19
2017-05-27T02:49:47.196Z,62.1
2017-05-27T02:50:57.229Z,62.29
2017-05-27T02:52:07.593Z,62.32
2017-05-27T02:53:17.938Z,62.39
2017-05-27T02:54:27.655Z,62.42
2017-05-27T02:55:37.750Z,62.23
2017-05-27T02:56:47.470Z,62.01
2017-05-27T02:57:57.808Z,62.04
2017-05-27T02:59:08.172Z,62.01
2017-05-27T03:00:18.524Z,62.39
2017-05-27T03:01:29.178Z,62.48
2017-05-27T03:32:57.680Z,60.16
2017-05-27T03:34:08.020Z,59.84
2017-05-27T03:35:18.058Z,60.64
2017-05-27T03:36:28.401Z,61.66
2017-05-27T03:37:38.739Z,61.85
2017-05-27T03:38:49.142Z,62.17
2017-05-27T03:39:59.166Z,62.36
2017-05-27T03:41:09.503Z,62.65
2017-05-27T03:42:19.860Z,62.59
2017-05-27T03:43:30.204Z,62.96
2017-05-27T03:44:40.588Z,63.16
2017-05-27T03:45:50.315Z,63.19
2017-05-27T03:47:00.046Z,63.29
2017-05-27T03:48:10.393Z,63.22
2017-05-27T03:49:20.749Z,62.45
2017-05-27T03:50:31.161Z,62.55
2017-05-27T03:51:40.905Z,62.96
2017-05-27T03:52:51.264Z,62.87
2017-05-27T03:54:01.610Z,62.39
2017-05-27T03:55:11.957Z,62.32
2017-05-27T03:56:22.060Z,62.52
2017-05-27T03:57:32.108Z,62.32
2017-05-27T03:58:42.475Z,62.26
2017-05-27T03:59:52.824Z,62.45
2017-05-27T04:01:03.185Z,62.16
2017-05-27T04:02:12.954Z,62.45
2017-05-27T04:03:22.991Z,62.48
2017-05-27T04:04:33.347Z,62.68
2017-05-27T04:05:43.703Z,62.68
2017-05-27T04:06:54.052Z,62.68
2017-05-27T04:08:04.157Z,62.58
2017-05-27T04:09:14.495Z,62.1
2017-05-27T04:10:24.831Z,62.13
2017-05-27T04:11:35.173Z,62.61
2017-05-27T04:12:45.513Z,62.03
2017-05-27T04:13:55.862Z,62.23
2017-05-27T04:15:05.587Z,62.13
2017-05-27T04:16:15.947Z,62.03
2017-05-27T04:17:26.286Z,62.23
2017-05-27T04:18:36.636Z,61.19
2017-05-27T04:19:47.015Z,58.2
2017-05-27T04:20:57.386Z,56.96
2017-05-27T04:22:07.738Z,55.63
2017-05-27T04:23:17.768Z,55.2
2017-05-27T04:24:28.173Z,54.67
2017-05-27T04:25:38.210Z,54.66
2017-05-27T04:26:48.555Z,54.61
2017-05-27T04:27:58.898Z,54.66
2017-05-27T04:29:08.945Z,54.79
2017-05-27T04:30:18.980Z,54.91
2017-05-27T04:31:29.327Z,55.04
2017-05-27T04:32:39.376Z,55.07
2017-05-27T04:33:49.743Z,54.7
2017-05-27T04:34:59.788Z,55.02
2017-05-27T04:36:10.147Z,55.05
2017-05-27T04:37:20.187Z,55.47
2017-05-27T04:38:30.540Z,55.86
2017-05-27T04:39:40.632Z,55.69
2017-05-27T04:40:50.978Z,55.62
2017-05-27T04:42:00.705Z,55.71
2017-05-27T04:43:10.753Z,55.84
2017-05-27T04:44:21.113Z,55.84
2017-05-27T04:45:31.513Z,55.87
2017-05-27T04:46:41.863Z,55.96
2017-05-27T04:47:51.279Z,55.96
2017-05-27T04:49:01.630Z,55.7
2017-05-27T04:50:11.987Z,55.41
2017-05-27T04:51:22.420Z,55.33
2017-05-27T04:52:32.776Z,54.85
2017-05-27T04:53:42.830Z,55.26
2017-05-27T04:54:53.198Z,55.26
2017-05-27T04:56:03.550Z,55.16
2017-05-27T04:57:13.652Z,55.46
2017-05-27T04:58:23.911Z,55.19
2017-05-27T04:59:33.952Z,55.19
2017-05-27T05:00:44.323Z,55.1
2017-05-27T05:01:54.359Z,54.9
2017-05-27T05:03:04.407Z,55
2017-05-27T05:04:14.761Z,55.12
2017-05-27T05:05:25.116Z,55.12
2017-05-27T05:06:35.465Z,55.51
2017-05-27T05:07:45.841Z,55.58
2017-05-27T05:08:56.300Z,55.88
2017-05-27T05:10:06.661Z,55.98
2017-05-27T05:11:17.026Z,55.78
2017-05-27T05:12:27.385Z,55.98
2017-05-27T05:13:37.441Z,55.68
2017-05-27T05:14:47.869Z,55.78
2017-05-27T05:15:58.222Z,55.78
2017-05-27T05:17:08.193Z,55.88
2017-05-27T05:18:18.538Z,55.78
2017-05-27T05:19:28.590Z,55.68
2017-05-27T05:20:38.990Z,55.78
2017-05-27T05:21:49.350Z,55.78
2017-05-27T05:22:59.704Z,55.68
2017-05-27T05:24:10.064Z,55.78
2017-05-27T05:25:20.171Z,55.78
2017-05-27T05:26:30.278Z,56.1
2017-05-27T05:27:40.327Z,56.07
2017-05-27T05:28:50.692Z,56.27
2017-05-27T05:30:01.047Z,56.07
2017-05-27T05:31:11.405Z,55.91
2017-05-27T05:32:21.755Z,55.58
2017-05-27T05:33:32.108Z,55.32
2017-05-27T05:34:42.469Z,55.39
2017-05-27T05:35:52.816Z,55.49
2017-05-27T05:37:03.172Z,55.49
2017-05-27T05:38:13.566Z,55.58
2017-05-27T05:39:23.612Z,55.58
2017-05-27T05:40:33.744Z,55.95
2017-05-27T05:41:44.161Z,55.76
2017-05-27T05:42:54.515Z,55.92
2017-05-27T05:44:04.920Z,55.73
2017-05-27T05:45:15.275Z,55.9
2017-05-27T05:46:25.640Z,55.99
2017-05-27T05:47:35.674Z,56.19
2017-05-27T05:48:45.721Z,56.26
2017-05-27T05:49:56.128Z,56.46
2017-05-27T05:51:06.485Z,56.75
2017-05-27T05:52:16.527Z,56.56
2017-05-27T05:53:26.878Z,56.43
2017-05-27T05:54:36.919Z,57.4
2017-05-27T05:55:47.277Z,57.18
2017-05-27T05:56:57.325Z,57.57
2017-05-27T05:58:07.685Z,56.96
2017-05-27T05:59:17.748Z,57.06
2017-05-27T06:00:28.135Z,57.54
2017-05-27T06:01:38.481Z,57.42
2017-05-27T06:02:48.851Z,58.4
2017-05-27T06:03:58.918Z,58.17
2017-05-27T06:05:08.954Z,58.27
2017-05-27T06:06:19.328Z,58.17
2017-05-27T06:07:29.740Z,57.95
2017-05-27T06:08:40.147Z,57.95
2017-05-27T06:09:50.208Z,57.95
2017-05-27T06:11:00.245Z,57.92
2017-05-27T06:12:10.298Z,57.82
2017-05-27T06:13:20.657Z,58.5
2017-05-27T06:14:31.018Z,59.55
2017-05-27T06:15:41.392Z,60.66
2017-05-27T06:16:51.428Z,61.08
2017-05-27T06:18:01.484Z,61.12
2017-05-27T06:19:11.888Z,61.68
2017-05-27T06:20:21.920Z,60.51
2017-05-27T06:21:32.285Z,60.22
2017-05-27T06:22:42.618Z,59.38
2017-05-27T06:23:52.675Z,58.53
2017-05-27T06:25:03.075Z,58.53
2017-05-27T06:26:13.437Z,57.97
2017-05-27T06:27:23.470Z,57.68
2017-05-27T06:28:33.502Z,58.04
2017-05-27T06:29:44.110Z,58.23
2017-05-27T06:30:54.148Z,58.23
2017-05-27T06:32:04.189Z,58.04
2017-05-27T06:33:14.242Z,58.33
2017-05-27T06:34:24.590Z,58.62
2017-05-27T06:35:34.644Z,58.43
2017-05-27T06:36:44.993Z,58.23
2017-05-27T06:37:55.341Z,58.82
2017-05-27T06:39:05.698Z,59.01
2017-05-27T06:40:16.057Z,58.72
2017-05-27T06:41:26.420Z,59.18
2017-05-27T06:42:36.786Z,59.18
2017-05-27T06:43:46.834Z,59.47
2017-05-27T06:44:56.892Z,60.05
2017-05-27T06:46:07.248Z,59.76
2017-05-27T06:47:17.594Z,59.64
2017-05-27T06:48:27.967Z,59.92
2017-05-27T06:49:38.345Z,60.41
2017-05-27T06:50:48.388Z,60.48
2017-05-27T06:51:58.740Z,60.58
2017-05-27T06:53:08.463Z,60.35
2017-05-27T06:54:18.564Z,60.84
2017-05-27T06:55:28.296Z,60.64
2017-05-27T06:56:38.689Z,60.94
2017-05-27T06:57:48.752Z,61.13
2017-05-27T06:58:58.806Z,60.94
2017-05-27T07:00:09.150Z,60.74
2017-05-27T07:01:19.516Z,60.64
2017-05-27T07:02:29.873Z,60.64
2017-05-27T07:03:39.279Z,60.45
2017-05-27T07:04:49.667Z,61
2017-05-27T07:05:59.767Z,61.29
2017-05-27T07:07:09.509Z,60.68
2017-05-27T07:08:19.863Z,60.61
2017-05-27T07:09:30.211Z,60.97
2017-05-27T07:10:40.559Z,61.07
2017-05-27T07:11:50.958Z,61.26
2017-05-27T07:13:01.329Z,61.17
2017-05-27T07:14:11.681Z,61.07
2017-05-27T07:15:22.063Z,60.78
2017-05-27T07:16:32.414Z,60.58
2017-05-27T07:17:42.513Z,60.68
2017-05-27T07:18:52.567Z,60.78
2017-05-27T07:20:02.927Z,60.39
2017-05-27T07:21:12.962Z,60.78
2017-05-27T07:22:23.310Z,60.61
2017-05-27T07:23:33.723Z,60.91
2017-05-27T07:24:44.079Z,60.61
2017-05-27T07:25:54.512Z,60.91
2017-05-27T07:27:04.868Z,60.61
2017-05-27T07:28:14.602Z,60.71
2017-05-27T07:29:25.014Z,60.81
2017-05-27T07:30:35.381Z,60.81
2017-05-27T07:31:45.442Z,60.81
2017-05-27T07:32:55.918Z,60.32
2017-05-27T07:34:06.266Z,60.16
2017-05-27T07:35:16.664Z,60.84
2017-05-27T07:36:27.029Z,60.74
2017-05-27T07:37:37.387Z,61.13
2017-05-27T07:38:47.744Z,60.55
2017-05-27T07:39:58.123Z,60.45
2017-05-27T07:41:08.531Z,60.55
2017-05-27T07:42:18.882Z,60.16
2017-05-27T07:43:28.926Z,60.35
2017-05-27T07:44:38.998Z,60.77
2017-05-27T07:45:49.376Z,60.97
2017-05-27T07:46:59.469Z,61.16
2017-05-27T07:48:09.823Z,60.84
2017-05-27T07:49:20.167Z,60.84
2017-05-27T07:50:30.545Z,61.13
2017-05-27T07:51:40.282Z,60.09
2017-05-27T07:52:50.324Z,60.87
2017-05-27T07:54:00.414Z,60.68
2017-05-27T07:55:10.973Z,61.07
2017-05-27T07:56:21.318Z,60.48
2017-05-27T07:57:31.366Z,61.07
2017-05-27T07:58:41.444Z,61.07
2017-05-27T07:59:51.479Z,60.87
2017-05-27T08:01:01.831Z,60.77
2017-05-27T08:02:11.253Z,60.68
2017-05-27T08:03:21.611Z,60.87
2017-05-27T08:04:32.022Z,61.16
2017-05-27T08:05:42.380Z,60.97
2017-05-27T08:06:52.762Z,61.19
2017-05-27T08:08:03.152Z,61.09
2017-05-27T08:09:13.199Z,61.19
2017-05-27T08:10:23.580Z,61.07
2017-05-27T08:11:33.609Z,60.9
2017-05-27T08:12:43.962Z,61.09
2017-05-27T08:13:53.987Z,60.71
2017-05-27T08:15:04.101Z,61.09
2017-05-27T08:16:13.886Z,61.19
2017-05-27T08:17:23.930Z,60.71
2017-05-27T08:18:33.972Z,61.09
2017-05-27T08:19:44.339Z,61.09
2017-05-27T08:20:54.395Z,61.02
2017-05-27T08:22:04.766Z,60.61
2017-05-27T08:23:14.804Z,60.54
2017-05-27T08:24:24.543Z,60.25
2017-05-27T08:25:34.915Z,60.44
2017-05-27T08:26:44.961Z,60.54
2017-05-27T08:27:55.026Z,60.54
2017-05-27T08:29:05.069Z,60.64
2017-05-27T08:30:15.128Z,60.44
2017-05-27T08:31:25.503Z,60.25
2017-05-27T08:32:35.846Z,60.64
2017-05-27T08:33:46.255Z,60.64
2017-05-27T08:34:56.306Z,60.57
2017-05-27T08:36:06.671Z,60.08
2017-05-27T08:37:17.027Z,60.18
2017-05-27T08:38:27.384Z,59.89
2017-05-27T08:39:37.797Z,59.92
2017-05-27T08:40:48.169Z,59.82
2017-05-27T08:41:58.220Z,59.72
2017-05-27T08:43:08.584Z,60.05
2017-05-27T08:44:18.939Z,59.82
2017-05-27T08:45:28.981Z,59.85
2017-05-27T08:46:38.729Z,59.66
2017-05-27T08:47:49.080Z,59.75
2017-05-27T08:48:59.514Z,59.49
2017-05-27T08:50:09.891Z,59.69
2017-05-27T08:51:19.679Z,59.2
2017-05-27T08:52:29.723Z,58.74
2017-05-27T08:53:40.077Z,58.67
2017-05-27T08:54:50.437Z,58.77
2017-05-27T08:56:00.166Z,60.13
2017-05-27T08:57:10.587Z,60.85
2017-05-27T08:58:20.948Z,61.02
2017-05-27T08:59:31.309Z,59.95
2017-05-27T09:00:41.039Z,59.81
2017-05-27T09:01:51.386Z,60.17
2017-05-27T09:03:01.787Z,59.39
2017-05-27T09:04:12.158Z,58.58
2017-05-27T09:05:21.893Z,58.12
2017-05-27T09:06:32.265Z,57.75
2017-05-27T09:07:42.623Z,57.81
2017-05-27T09:08:53.038Z,58.47
2017-05-27T09:10:03.409Z,58.56
2017-05-27T09:11:13.761Z,57.91
2017-05-27T09:12:24.141Z,57.71
2017-05-27T09:13:34.199Z,58.79
2017-05-27T09:14:44.632Z,58.86
2017-05-27T09:15:55.021Z,58.83
2017-05-27T09:17:05.380Z,59.61
2017-05-27T09:18:15.743Z,59.97
2017-05-27T09:19:25.791Z,59.84
2017-05-27T09:20:35.894Z,59.94
2017-05-27T09:21:45.942Z,58.97
2017-05-27T09:22:56.293Z,58.44
2017-05-27T09:24:06.699Z,57.78
2017-05-27T09:25:17.064Z,57.62
2017-05-27T09:26:26.557Z,57.15
2017-05-27T09:27:36.615Z,57.93
2017-05-27T09:28:46.659Z,58.52
2017-05-27T09:29:57.015Z,58.42
2017-05-27T09:31:07.381Z,59.08
2017-05-27T09:32:17.168Z,59.34
2017-05-27T09:33:27.515Z,60
2017-05-27T09:34:37.871Z,60
2017-05-27T09:35:48.228Z,60.94
2017-05-27T09:36:58.578Z,60.82
2017-05-27T09:38:08.938Z,60.88
2017-05-27T09:39:19.016Z,60.2
2017-05-27T09:40:29.392Z,61.4
2017-05-27T09:41:39.451Z,61.08
2017-05-27T09:42:49.833Z,60.75
2017-05-27T09:44:00.181Z,60.92
2017-05-27T09:45:10.228Z,60.44
2017-05-27T09:46:20.600Z,59.78
2017-05-27T09:47:30.956Z,59.88
2017-05-27T09:48:41.321Z,59.72
2017-05-27T09:49:51.737Z,59.42
2017-05-27T09:51:02.137Z,59.64
2017-05-27T09:52:12.167Z,59.06
2017-05-27T09:53:22.527Z,58.89
2017-05-27T09:54:32.887Z,58.99
2017-05-27T09:55:42.972Z,58.44
2017-05-27T09:56:53.019Z,58.83
2017-05-27T09:58:03.391Z,58.63
2017-05-27T09:59:13.436Z,58.53
2017-05-27T10:00:23.683Z,58.92
2017-05-27T10:01:33.154Z,58.83
2017-05-27T10:02:43.240Z,59.02
2017-05-27T10:03:53.314Z,59.22
2017-05-27T10:05:03.373Z,59.12
2017-05-27T10:06:13.744Z,59.05
2017-05-27T10:07:24.203Z,58.86
2017-05-27T10:08:34.246Z,58.3
2017-05-27T10:09:44.618Z,58.4
2017-05-27T10:10:54.994Z,58.23
2017-05-27T10:12:05.046Z,58.03
2017-05-27T10:13:15.417Z,58.55
2017-05-27T10:14:25.456Z,58.91
2017-05-27T10:15:34.917Z,60.38
2017-05-27T10:16:45.280Z,61.3
2017-05-27T10:17:55.626Z,61.72
2017-05-27T10:19:06.082Z,61.69
2017-05-27T10:20:16.439Z,61.47
2017-05-27T10:21:26.801Z,61.05
2017-05-27T10:22:36.523Z,60.33
2017-05-27T10:23:46.878Z,59.97
2017-05-27T10:24:57.289Z,59.58
2017-05-27T10:26:07.652Z,59.61
2017-05-27T10:27:17.698Z,59.31
2017-05-27T10:28:28.090Z,59.15
2017-05-27T10:29:38.464Z,59.05
2017-05-27T10:30:48.831Z,58.89
2017-05-27T10:31:59.195Z,59.28
2017-05-27T10:33:09.559Z,59.38
2017-05-27T10:34:19.924Z,60.55
2017-05-27T10:35:29.965Z,60.97
2017-05-27T10:36:40.365Z,60.65
2017-05-27T10:37:50.726Z,59.8
2017-05-27T10:39:00.794Z,59.74
2017-05-27T10:40:11.155Z,59.28
2017-05-27T10:41:21.510Z,58.5
2017-05-27T10:42:31.612Z,58.52
2017-05-27T10:43:41.960Z,58.52
2017-05-27T10:44:52.317Z,58.84
2017-05-27T10:46:02.351Z,58.55
2017-05-27T10:47:12.398Z,58.65
2017-05-27T10:48:22.490Z,58.45
2017-05-27T10:49:32.555Z,58.65
2017-05-27T10:50:42.935Z,58.45
2017-05-27T10:51:52.997Z,58.65
2017-05-27T10:53:03.054Z,58.94
2017-05-27T10:54:13.484Z,58.94
2017-05-27T10:55:23.852Z,58.45
2017-05-27T10:56:34.218Z,58.65
2017-05-27T10:57:44.575Z,58.38
2017-05-27T10:58:54.943Z,58.38
2017-05-27T11:00:04.992Z,58.68
2017-05-27T11:01:15.358Z,58.38
2017-05-27T11:02:25.719Z,58.41
2017-05-27T11:03:35.784Z,58.31
2017-05-27T11:04:45.509Z,57.95
2017-05-27T11:05:55.907Z,57.29
2017-05-27T11:07:05.958Z,57.78
2017-05-27T11:08:16.309Z,57.71
2017-05-27T11:09:26.342Z,57.81
2017-05-27T11:10:36.399Z,58.57
2017-05-27T11:11:46.464Z,58.98
2017-05-27T11:12:56.522Z,59.81
2017-05-27T11:14:06.571Z,60.24
2017-05-27T11:15:16.927Z,60.34
2017-05-27T11:16:27.293Z,60.21
2017-05-27T11:17:37.693Z,59.43
2017-05-27T11:18:48.114Z,59.07
2017-05-27T11:19:58.496Z,58.8
2017-05-27T11:21:08.843Z,58.7
2017-05-27T11:22:18.889Z,59.78
2017-05-27T11:23:29.287Z,58.87
2017-05-27T11:24:39.665Z,58.7
2017-05-27T11:25:50.015Z,58.05
2017-05-27T11:27:00.072Z,58.05
2017-05-27T11:28:10.422Z,58.37
2017-05-27T11:29:20.792Z,58.37
2017-05-27T11:30:31.153Z,57.68
2017-05-27T11:31:41.523Z,57.52
2017-05-27T11:32:51.891Z,57.71
2017-05-27T11:34:02.253Z,58.4
2017-05-27T11:35:12.655Z,59.06
2017-05-27T11:36:23.013Z,58.64
2017-05-27T11:37:33.363Z,58.17
2017-05-27T11:38:43.961Z,57.71
2017-05-27T11:39:54.030Z,57.81
2017-05-27T11:41:04.453Z,58.11
2017-05-27T11:42:14.824Z,59.35
2017-05-27T11:43:25.237Z,59.98
2017-05-27T11:44:35.594Z,60.24
2017-05-27T11:45:45.950Z,60.7
2017-05-27T11:46:55.743Z,60.28
2017-05-27T11:48:06.098Z,59.59
2017-05-27T11:49:15.816Z,58.48
2017-05-27T11:50:26.176Z,57.26
2017-05-27T11:51:36.735Z,57.52
2017-05-27T11:52:46.827Z,56.47
2017-05-27T11:53:57.203Z,56.76
2017-05-27T11:55:07.567Z,57.54
2017-05-27T11:56:17.930Z,58.79
2017-05-27T11:57:27.990Z,59.35
2017-05-27T11:58:38.348Z,59.71
2017-05-27T11:59:48.734Z,59.98
2017-05-27T12:00:59.094Z,60.34
2017-05-27T12:02:09.157Z,60.34
2017-05-27T12:03:19.522Z,60.44
2017-05-27T12:04:29.627Z,59.53
2017-05-27T12:05:39.684Z,58.68
2017-05-27T12:06:50.036Z,58.05
2017-05-27T12:08:00.431Z,58.05
2017-05-27T12:09:10.798Z,58.64
2017-05-27T12:10:21.147Z,58.51
2017-05-27T12:11:31.519Z,58.54
2017-05-27T12:12:41.889Z,58.02
2017-05-27T12:13:51.924Z,58.44
2017-05-27T12:15:02.279Z,57.49
2017-05-27T12:16:12.654Z,57.62
2017-05-27T12:17:22.704Z,57.06
2017-05-27T12:18:33.069Z,57.45
2017-05-27T12:19:42.813Z,57.25
2017-05-27T12:20:52.869Z,57.87
2017-05-27T12:22:03.285Z,57.48
2017-05-27T12:23:13.644Z,57.38
2017-05-27T12:24:23.719Z,57.28
2017-05-27T12:25:34.083Z,57.77
2017-05-27T12:26:44.452Z,57.74
2017-05-27T12:27:54.828Z,58.43
2017-05-27T12:29:05.205Z,58.43
2017-05-27T12:30:15.555Z,58.16
2017-05-27T12:31:25.926Z,58.36
2017-05-27T12:32:35.984Z,58.92
2017-05-27T12:33:46.331Z,59.77
2017-05-27T12:34:56.772Z,60.69
2017-05-27T12:36:06.813Z,60.76
2017-05-27T12:37:17.176Z,61.22
2017-05-27T12:38:27.227Z,61.29
2017-05-27T12:39:37.572Z,60.28
2017-05-27T12:40:47.927Z,59.63
2017-05-27T12:41:58.287Z,59.56
2017-05-27T12:43:08.332Z,59.46
2017-05-27T12:44:18.682Z,59.07
2017-05-27T12:45:29.049Z,58.9
2017-05-27T12:46:39.396Z,59
2017-05-27T12:47:49.430Z,58.8
2017-05-27T12:48:59.782Z,58.61
2017-05-27T12:50:10.152Z,59
2017-05-27T12:51:20.211Z,59
2017-05-27T12:52:30.329Z,58.61
2017-05-27T12:53:40.691Z,58.93
2017-05-27T12:54:51.037Z,57.95
2017-05-27T12:56:01.082Z,58.17
2017-05-27T12:57:11.131Z,57.78
2017-05-27T12:58:21.546Z,57.68
2017-05-27T12:59:31.617Z,57.32
2017-05-27T13:00:41.985Z,57.32
2017-05-27T13:01:52.349Z,57.54
2017-05-27T13:03:02.703Z,58.53
2017-05-27T13:04:13.121Z,58.69
2017-05-27T13:05:22.860Z,59.74
2017-05-27T13:06:33.218Z,60.47
2017-05-27T13:07:43.272Z,61.61
2017-05-27T13:08:53.306Z,61.35
2017-05-27T13:10:03.707Z,61.55
2017-05-27T13:11:14.081Z,61.72
2017-05-27T13:12:24.152Z,61.66
2017-05-27T13:13:34.524Z,61
2017-05-27T13:14:44.882Z,60.81
2017-05-27T13:15:55.298Z,60.25
2017-05-27T13:17:05.665Z,59.77
2017-05-27T13:18:16.030Z,59.79
2017-05-27T13:19:26.389Z,59.3
2017-05-27T13:20:36.446Z,59.2
2017-05-27T13:21:46.858Z,59.04
2017-05-27T13:22:56.909Z,58.75
2017-05-27T13:24:06.978Z,58.78
2017-05-27T13:25:17.341Z,58.48
2017-05-27T13:26:27.695Z,58.48
2017-05-27T13:27:37.781Z,58.97
2017-05-27T13:28:48.140Z,58.48
2017-05-27T13:29:58.205Z,58.78
2017-05-27T13:31:08.560Z,59.07
2017-05-27T13:32:18.618Z,59.17
2017-05-27T13:33:28.705Z,59.27
2017-05-27T13:34:38.761Z,59.27
2017-05-27T13:35:49.125Z,58.87
2017-05-27T13:36:59.168Z,59.46
2017-05-27T13:38:09.611Z,59.36
2017-05-27T13:39:19.706Z,59.46
2017-05-27T13:40:30.070Z,59.27
2017-05-27T13:41:39.837Z,58.97
2017-05-27T13:42:49.898Z,59.85
2017-05-27T13:43:59.950Z,59.72
2017-05-27T13:45:10.057Z,59.46
2017-05-27T13:46:20.428Z,59.27
2017-05-27T13:47:30.797Z,59.07
2017-05-27T13:48:41.159Z,59.07
2017-05-27T13:49:51.517Z,59
2017-05-27T13:51:01.897Z,59.29
2017-05-27T13:52:12.269Z,59.85
2017-05-27T13:53:22.736Z,59.72
2017-05-27T13:54:33.161Z,60.02
2017-05-27T13:55:43.221Z,60.02
2017-05-27T13:56:53.589Z,60.41
2017-05-27T13:58:03.648Z,59.43
2017-05-27T13:59:13.064Z,59.53
2017-05-27T14:00:23.493Z,59.33
2017-05-27T14:01:33.859Z,59.72
2017-05-27T14:02:44.219Z,60.41
2017-05-27T14:03:54.567Z,60.08
2017-05-27T14:05:04.617Z,59.89
2017-05-27T14:06:14.972Z,60.18
2017-05-27T14:07:24.714Z,60.18
2017-05-27T14:08:34.758Z,60.16
2017-05-27T14:09:44.818Z,60.08
2017-05-27T14:10:55.181Z,59.89
2017-05-27T14:12:05.237Z,60.18
2017-05-27T14:13:14.983Z,60.57
2017-05-27T14:14:25.345Z,60.57
2017-05-27T14:15:35.707Z,60.28
2017-05-27T14:16:46.075Z,60.47
2017-05-27T14:17:56.446Z,61.23
2017-05-27T14:19:06.867Z,61.2
2017-05-27T14:20:16.952Z,61
2017-05-27T14:21:27.531Z,60.97
2017-05-27T14:22:37.562Z,60.78
2017-05-27T14:23:47.598Z,60.29
2017-05-27T14:24:58.020Z,60.03
2017-05-27T14:26:08.382Z,60.1
2017-05-27T14:27:18.758Z,60.22
2017-05-27T14:28:29.101Z,60.1
2017-05-27T14:29:39.158Z,60.03
2017-05-27T14:30:49.534Z,60.13
2017-05-27T14:31:59.892Z,60.13
2017-05-27T14:33:10.265Z,60.03
2017-05-27T14:34:20.641Z,59.93
2017-05-27T14:35:30.690Z,59.93
2017-05-27T14:36:41.104Z,59.83
2017-05-27T14:37:51.466Z,60.22
2017-05-27T14:39:01.834Z,59.83
2017-05-27T14:40:12.187Z,60.03
2017-05-27T14:41:22.561Z,60.03
2017-05-27T14:42:32.997Z,60.03
2017-05-27T14:43:43.342Z,60.03
2017-05-27T14:44:53.395Z,60.03
2017-05-27T14:46:03.764Z,59.93
2017-05-27T14:47:14.126Z,60.22
2017-05-27T14:48:24.281Z,60.13
2017-05-27T14:49:34.675Z,60.32
2017-05-27T14:50:45.051Z,60.13
2017-05-27T14:51:55.090Z,60.03
2017-05-27T14:53:05.467Z,60.13
2017-05-27T14:54:15.514Z,59.9
2017-05-27T14:55:25.865Z,60.1
2017-05-27T14:56:35.901Z,60.49
2017-05-27T14:57:46.273Z,60.39
2017-05-27T14:58:56.634Z,60.29
2017-05-27T15:00:06.992Z,60.39
2017-05-27T15:01:17.370Z,60.39
2017-05-27T15:02:27.754Z,60.29
2017-05-27T15:03:38.102Z,60.49
2017-05-27T15:04:48.472Z,60.58
2017-05-27T15:05:58.565Z,60.29
2017-05-27T15:07:08.926Z,60.39
2017-05-27T15:08:19.034Z,60.58
2017-05-27T15:09:29.086Z,60.39
2017-05-27T15:10:39.438Z,60.46
2017-05-27T15:11:49.787Z,60.39
2017-05-27T15:12:59.856Z,60.49
2017-05-27T15:14:10.271Z,60.36
2017-05-27T15:15:20.625Z,60.46
2017-05-27T15:16:31.001Z,60.65
2017-05-27T15:17:41.412Z,60.85
2017-05-27T15:18:51.455Z,60.85
2017-05-27T15:20:01.846Z,60.46
2017-05-27T15:21:11.577Z,60.46
2017-05-27T15:22:21.939Z,60.46
2017-05-27T15:23:32.309Z,60.06
2017-05-27T15:24:42.672Z,60.85
2017-05-27T15:25:53.030Z,60.72
2017-05-27T15:27:03.066Z,60.72
2017-05-27T15:28:13.463Z,60.91
2017-05-27T15:29:23.820Z,60.82
2017-05-27T15:30:34.177Z,60.42
2017-05-27T15:31:44.527Z,60.52
2017-05-27T15:32:54.579Z,60.82
2017-05-27T15:34:04.623Z,60.52
2017-05-27T15:35:15.023Z,60.72
2017-05-27T15:36:25.378Z,60.72
2017-05-27T15:37:35.424Z,60.72